Accueil
METAR-TAF:

METAR-TAF

Aéroports :

Aéroport de Birmingham

Birmingham, Angleterre

latitude: 52-27N, longitude: 001-44W, altitude: 99 m

Observation

Le bulletin a été fait il y a 23 minutes, à 16:20 UTC
Vent 7 kt de nord-est
Température 5°C
Humidité 65%
Pression 1033 hPa
Visibilité 10 km ou plus
Ciel couvert à une hauteur de 3700 ft

METAR: EGBB 051620Z 04007KT 9999 OVC037 05/M01 Q1033

Heure: 16:43 (16:43 UTC)

Prévision

Le bulletin a été fait il y a 5 heures et 47 minutes, à 10:56 UTC
Prévision valable du 05 à 12 UTC au 06 à 12 UTC
Vent 7 kt de est/nord-est
Visibilité 10 km ou plus
Nuages épars à une hauteur de 4000 ft
Probabilité 30% :
Temporairement
du 06 à 04 UTC au 06 à 10 UTC
Visibilité: 8000 m

TAF: EGBB 051056Z 0512/0612 07007KT 9999 SCT040 PROB30 TEMPO 0604/0610 8000

Observations et prévisions météorologiques de plus de 4000 aéroports (messages METAR et TAF).

Les stations disponibles sont représentées par des disques jaunes et rouges sur la carte.

Passer la souris dessus pour voir le nom de la station.

Cliquer dessus pour voir les observations et prévisions météorologiques.

Pour changer de carte: cliquez sur les boutons verts avec une croix noire pour zoomer, sur le bouton vert avec un tiret pour effectuer un zoom arrière, ou sur les flèches vertes pour les cartes adjacentes.


METAR-TAF: